createdAt,value
2024-01-29T00:02:21.168Z,8.27
2024-01-29T00:04:48.166Z,6.90
2024-01-29T00:07:15.222Z,7.60
2024-01-29T00:09:43.308Z,8.13
2024-01-29T00:12:10.631Z,7.50
2024-01-29T00:14:37.612Z,8.00
2024-01-29T00:17:04.781Z,7.47
2024-01-29T00:19:31.711Z,7.77
2024-01-29T00:21:58.688Z,7.67
2024-01-29T00:24:25.618Z,7.60
2024-01-29T00:26:52.659Z,8.00
2024-01-29T00:29:19.632Z,7.90
2024-01-29T00:31:46.950Z,7.67
2024-01-29T00:34:14.155Z,7.77
2024-01-29T00:36:41.420Z,7.40
2024-01-29T00:39:10.452Z,8.40
2024-01-29T00:41:38.147Z,7.80
2024-01-29T00:44:05.338Z,7.87
2024-01-29T00:46:32.454Z,8.07
2024-01-29T00:48:59.680Z,8.67
2024-01-29T00:51:26.775Z,7.80
2024-01-29T00:53:53.686Z,7.70
2024-01-29T00:56:20.559Z,8.03
2024-01-29T00:58:47.440Z,7.70
2024-01-29T01:01:14.412Z,8.17
2024-01-29T01:03:41.469Z,7.80
2024-01-29T01:06:11.515Z,7.93
2024-01-29T01:08:38.472Z,7.80
2024-01-29T01:11:05.635Z,7.90
2024-01-29T01:13:32.545Z,7.80
2024-01-29T01:15:59.776Z,8.17
2024-01-29T01:18:26.835Z,7.60
2024-01-29T01:20:53.924Z,7.40
2024-01-29T01:23:20.773Z,7.57
2024-01-29T01:25:47.848Z,8.17
2024-01-29T01:28:15.135Z,7.33
2024-01-29T01:30:42.305Z,7.83
2024-01-29T01:33:09.417Z,8.37
2024-01-29T01:35:36.372Z,7.80
2024-01-29T01:38:03.352Z,8.50
2024-01-29T01:40:30.210Z,8.20
2024-01-29T01:42:57.200Z,8.20
2024-01-29T01:45:24.189Z,8.57
2024-01-29T01:47:51.386Z,7.90
2024-01-29T01:50:18.636Z,8.50
2024-01-29T01:52:45.700Z,8.53
2024-01-29T01:55:12.946Z,8.67
2024-01-29T01:57:41.163Z,8.87
2024-01-29T02:00:09.167Z,8.67
2024-01-29T02:02:36.700Z,8.90
2024-01-29T02:05:04.078Z,8.93
2024-01-29T02:07:31.317Z,8.37
2024-01-29T02:09:58.643Z,8.07
2024-01-29T02:12:26.566Z,8.37
2024-01-29T02:14:53.773Z,8.97
2024-01-29T02:17:20.803Z,7.70
2024-01-29T02:19:47.953Z,8.90
2024-01-29T02:22:14.978Z,9.00
2024-01-29T02:24:41.943Z,8.50
2024-01-29T02:27:08.902Z,8.73
2024-01-29T02:29:35.872Z,9.47
2024-01-29T02:32:02.909Z,8.27
2024-01-29T02:34:30.018Z,9.07
2024-01-29T02:36:58.416Z,8.47
2024-01-29T02:39:25.566Z,8.77
2024-01-29T02:41:52.607Z,9.57
2024-01-29T02:44:19.642Z,8.17
2024-01-29T02:46:46.511Z,8.47
2024-01-29T02:49:13.743Z,8.53
2024-01-29T02:51:40.771Z,8.30
2024-01-29T02:54:07.677Z,8.40
2024-01-29T02:56:34.558Z,8.00
2024-01-29T02:59:01.448Z,8.57
2024-01-29T03:01:28.570Z,9.13
2024-01-29T03:03:55.596Z,9.13
2024-01-29T03:06:23.171Z,8.90
2024-01-29T03:08:50.110Z,9.37
2024-01-29T03:11:17.103Z,8.40
2024-01-29T03:13:45.245Z,8.77
2024-01-29T03:16:12.253Z,8.80
2024-01-29T03:18:39.387Z,8.53
2024-01-29T03:21:06.449Z,8.40
2024-01-29T03:23:33.515Z,8.47
2024-01-29T03:26:00.445Z,8.37
2024-01-29T03:28:27.362Z,8.83
2024-01-29T03:30:54.308Z,8.37
2024-01-29T03:33:21.436Z,8.90
2024-01-29T03:35:48.437Z,9.03
2024-01-29T03:38:15.419Z,8.73
2024-01-29T03:40:42.346Z,8.93
2024-01-29T03:43:09.399Z,8.97
2024-01-29T03:45:36.916Z,8.53
2024-01-29T03:48:04.143Z,10.17
2024-01-29T03:50:31.138Z,9.90
2024-01-29T03:52:58.105Z,9.33
2024-01-29T03:55:25.208Z,9.13
2024-01-29T03:57:52.224Z,9.33
2024-01-29T04:00:20.264Z,9.40
2024-01-29T04:02:49.323Z,9.50
2024-01-29T04:05:17.057Z,8.50
2024-01-29T04:07:44.219Z,8.57
2024-01-29T04:10:12.720Z,8.73
2024-01-29T04:12:39.759Z,8.80
2024-01-29T04:15:07.117Z,9.73
2024-01-29T04:17:34.149Z,8.63
2024-01-29T04:20:01.084Z,8.63
2024-01-29T04:22:27.977Z,9.03
2024-01-29T04:24:54.979Z,9.20
2024-01-29T04:27:22.220Z,9.03
2024-01-29T04:29:49.257Z,8.63
2024-01-29T04:32:16.151Z,9.40
2024-01-29T04:34:43.107Z,9.47
2024-01-29T04:37:10.891Z,8.83
2024-01-29T04:39:41.346Z,8.40
2024-01-29T04:42:08.767Z,8.57
2024-01-29T04:44:35.702Z,8.10
2024-01-29T04:47:02.675Z,8.87
2024-01-29T04:49:29.724Z,10.53
2024-01-29T04:51:56.777Z,9.13
2024-01-29T04:54:23.756Z,8.97
2024-01-29T04:56:50.671Z,8.20
2024-01-29T04:59:18.314Z,8.40
2024-01-29T05:01:45.412Z,8.57
2024-01-29T05:04:13.007Z,9.17
2024-01-29T05:06:40.065Z,9.17
2024-01-29T05:09:10.428Z,9.00
2024-01-29T05:11:38.673Z,8.97
2024-01-29T05:14:05.548Z,10.40
2024-01-29T05:16:34.012Z,9.23
2024-01-29T05:19:01.174Z,11.13
2024-01-29T05:21:28.748Z,9.07
2024-01-29T05:23:55.848Z,9.37
2024-01-29T05:26:22.936Z,9.73
2024-01-29T05:28:49.964Z,8.67
2024-01-29T05:31:17.095Z,9.37
2024-01-29T05:33:44.166Z,10.10
2024-01-29T05:36:11.190Z,8.57
2024-01-29T05:38:38.086Z,9.83
2024-01-29T05:41:05.051Z,9.23
2024-01-29T05:43:32.009Z,8.70
2024-01-29T05:45:59.306Z,8.67
2024-01-29T05:48:26.540Z,9.03
2024-01-29T05:50:57.558Z,9.03
2024-01-29T05:53:24.646Z,9.23
2024-01-29T05:55:51.688Z,11.40
2024-01-29T05:58:22.414Z,9.63
2024-01-29T06:00:49.433Z,9.47
2024-01-29T06:03:17.832Z,9.63
2024-01-29T06:05:44.843Z,10.27
2024-01-29T06:08:11.894Z,10.40
2024-01-29T06:10:38.786Z,10.73
2024-01-29T06:13:05.707Z,10.53
2024-01-29T06:15:32.805Z,9.87
2024-01-29T06:17:59.861Z,9.67
2024-01-29T06:20:27.021Z,10.37
2024-01-29T06:22:54.168Z,9.83
2024-01-29T06:25:21.861Z,10.63
2024-01-29T06:27:49.210Z,9.67
2024-01-29T06:30:16.685Z,9.67
2024-01-29T06:32:43.805Z,9.43
2024-01-29T06:35:11.721Z,10.43
2024-01-29T06:37:39.069Z,9.87
2024-01-29T06:40:06.986Z,9.90
2024-01-29T06:42:34.148Z,10.50
2024-01-29T06:45:01.064Z,9.80
2024-01-29T06:47:28.091Z,11.90
2024-01-29T06:50:00.404Z,11.20
2024-01-29T06:52:28.155Z,9.60
2024-01-29T06:54:55.151Z,10.00
2024-01-29T06:57:22.245Z,9.60
2024-01-29T06:59:49.113Z,9.77
2024-01-29T07:02:16.100Z,10.33
2024-01-29T07:04:44.146Z,10.40
2024-01-29T07:07:11.246Z,10.47
2024-01-29T07:09:41.606Z,9.87
2024-01-29T07:12:08.775Z,12.43
2024-01-29T07:14:37.088Z,12.13
2024-01-29T07:17:05.190Z,10.57
2024-01-29T07:19:35.173Z,9.67
2024-01-29T07:22:06.576Z,10.53
2024-01-29T07:24:34.012Z,10.37
2024-01-29T07:27:01.193Z,10.27
2024-01-29T07:29:28.185Z,11.13
2024-01-29T07:31:55.193Z,10.30
2024-01-29T07:34:22.897Z,10.60
2024-01-29T07:36:49.965Z,12.63
2024-01-29T07:39:17.122Z,11.87
2024-01-29T07:41:44.213Z,11.80
2024-01-29T07:44:11.123Z,12.27
2024-01-29T07:46:38.019Z,11.27
2024-01-29T07:49:05.160Z,11.30
2024-01-29T07:51:32.259Z,11.17
2024-01-29T07:54:00.309Z,10.90
2024-01-29T07:56:27.380Z,10.73
2024-01-29T07:58:54.342Z,11.23
2024-01-29T08:01:21.500Z,11.20
2024-01-29T08:03:48.593Z,12.77
2024-01-29T08:06:15.696Z,16.37
2024-01-29T08:08:42.627Z,11.67
2024-01-29T08:11:12.781Z,10.87
2024-01-29T08:13:40.183Z,11.27
2024-01-29T08:16:07.251Z,10.90
2024-01-29T08:18:34.912Z,11.37
2024-01-29T08:21:02.127Z,11.00
2024-01-29T08:23:29.777Z,11.37
2024-01-29T08:25:56.932Z,11.20
2024-01-29T08:28:24.061Z,11.70
2024-01-29T08:30:52.226Z,13.23
2024-01-29T08:33:19.425Z,11.63
2024-01-29T08:35:46.451Z,14.80
2024-01-29T08:38:13.416Z,13.17
2024-01-29T08:40:41.023Z,11.73
2024-01-29T08:43:08.004Z,11.90
2024-01-29T08:45:36.442Z,11.70
2024-01-29T08:48:04.832Z,12.20
2024-01-29T08:50:32.275Z,14.83
2024-01-29T08:52:59.254Z,11.47
2024-01-29T08:55:27.061Z,12.67
2024-01-29T08:57:54.160Z,11.30
2024-01-29T09:00:21.123Z,12.10
2024-01-29T09:02:50.183Z,11.33
2024-01-29T09:05:18.134Z,10.77
2024-01-29T09:07:45.159Z,11.97
2024-01-29T09:10:12.796Z,13.17
2024-01-29T09:12:39.830Z,11.83
2024-01-29T09:15:07.672Z,11.23
2024-01-29T09:17:34.795Z,12.57
2024-01-29T09:20:02.926Z,13.90
2024-01-29T09:22:29.945Z,12.40
2024-01-29T09:24:56.951Z,12.10
2024-01-29T09:27:25.480Z,11.67
2024-01-29T09:29:52.499Z,11.70
2024-01-29T09:32:19.431Z,12.20
2024-01-29T09:34:47.021Z,12.33
2024-01-29T09:37:14.462Z,11.93
2024-01-29T09:39:41.512Z,12.40
2024-01-29T09:42:09.272Z,13.07
2024-01-29T09:44:40.045Z,12.63
2024-01-29T09:47:08.415Z,11.80
2024-01-29T09:49:36.489Z,12.67
2024-01-29T09:52:05.477Z,12.57
2024-01-29T09:54:34.618Z,12.20
2024-01-29T09:57:01.779Z,12.30
2024-01-29T09:59:28.716Z,13.87
2024-01-29T10:01:56.853Z,12.33
2024-01-29T10:04:24.501Z,13.53
2024-01-29T10:06:51.747Z,12.80
2024-01-29T10:09:18.730Z,13.70
2024-01-29T10:11:45.637Z,12.87
2024-01-29T10:14:12.615Z,13.10
2024-01-29T10:16:39.566Z,13.63
2024-01-29T10:19:06.810Z,13.63
2024-01-29T10:21:41.976Z,15.93
2024-01-29T10:24:17.065Z,14.63
2024-01-29T10:26:45.564Z,14.03
2024-01-29T10:29:13.688Z,13.27
2024-01-29T10:31:41.961Z,15.30
2024-01-29T10:34:09.476Z,13.83
2024-01-29T10:36:40.622Z,14.40
2024-01-29T10:39:09.407Z,14.65
2024-01-29T10:41:36.759Z,14.50
2024-01-29T10:44:05.596Z,15.65
2024-01-29T10:46:40.013Z,17.55
2024-01-29T10:49:08.215Z,16.30
2024-01-29T10:51:36.668Z,19.83
2024-01-29T10:54:04.113Z,22.77
2024-01-29T10:56:31.818Z,22.83
2024-01-29T10:59:03.078Z,25.80
2024-01-29T11:01:33.544Z,25.23
2024-01-29T11:04:05.161Z,28.58
2024-01-29T11:06:40.488Z,30.15
2024-01-29T11:09:14.115Z,30.50
2024-01-29T11:11:45.283Z,34.42
2024-01-29T11:14:12.382Z,33.60
2024-01-29T11:16:40.570Z,30.73
2024-01-29T11:19:07.791Z,32.55
2024-01-29T11:21:35.152Z,34.10
2024-01-29T11:24:02.122Z,35.58
2024-01-29T11:26:31.813Z,30.40
2024-01-29T11:29:03.593Z,32.15
2024-01-29T11:31:44.108Z,26.38
2024-01-29T11:34:13.669Z,26.58
2024-01-29T11:36:41.131Z,24.75
2024-01-29T11:39:16.048Z,28.42
2024-01-29T11:41:49.975Z,27.23
2024-01-29T11:44:20.368Z,26.00
2024-01-29T11:46:47.548Z,27.88
2024-01-29T11:49:24.153Z,31.75
2024-01-29T11:51:51.302Z,27.33
2024-01-29T11:54:18.417Z,30.65
2024-01-29T11:56:45.426Z,30.27
2024-01-29T11:59:12.656Z,27.80
2024-01-29T12:01:42.068Z,27.63
2024-01-29T12:04:12.475Z,29.50
2024-01-29T12:06:39.846Z,29.67
2024-01-29T12:09:12.666Z,29.38
2024-01-29T12:11:40.089Z,31.13
2024-01-29T12:14:09.264Z,33.25
2024-01-29T12:16:36.598Z,29.00
2024-01-29T12:19:06.270Z,28.45
2024-01-29T12:21:34.964Z,32.17
2024-01-29T12:24:01.955Z,27.63
2024-01-29T12:26:30.044Z,25.65
2024-01-29T12:28:59.524Z,28.23
2024-01-29T12:31:27.318Z,28.00
2024-01-29T12:33:54.491Z,26.10
2024-01-29T12:36:21.858Z,29.38
2024-01-29T12:38:58.916Z,30.27
2024-01-29T12:41:34.455Z,24.15
2024-01-29T12:44:11.173Z,27.77
2024-01-29T12:46:38.774Z,26.65
2024-01-29T12:49:09.117Z,27.42
2024-01-29T12:51:36.495Z,26.95
2024-01-29T12:54:04.123Z,25.20
2024-01-29T12:56:32.389Z,25.20
2024-01-29T12:58:59.598Z,24.50
2024-01-29T13:01:27.226Z,26.63
2024-01-29T13:03:54.749Z,24.83
2024-01-29T13:06:21.990Z,25.50
2024-01-29T13:08:49.112Z,23.40
2024-01-29T13:11:16.075Z,25.38
2024-01-29T13:13:43.109Z,26.45
2024-01-29T13:16:10.091Z,24.48
2024-01-29T13:18:37.222Z,25.38
2024-01-29T13:21:08.344Z,26.55
2024-01-29T13:23:37.546Z,27.85
2024-01-29T13:26:04.787Z,25.08
2024-01-29T13:28:31.798Z,24.67
2024-01-29T13:30:58.813Z,23.75
2024-01-29T13:33:25.845Z,26.98
2024-01-29T13:35:53.587Z,26.83
2024-01-29T13:38:21.976Z,28.40
2024-01-29T13:40:49.871Z,25.27
2024-01-29T13:43:19.639Z,26.95
2024-01-29T13:45:49.039Z,27.45
2024-01-29T13:48:16.272Z,27.00
2024-01-29T13:50:43.666Z,26.42
2024-01-29T13:53:11.480Z,27.73
2024-01-29T13:55:38.493Z,31.88
2024-01-29T13:58:05.557Z,28.02
2024-01-29T14:00:32.749Z,27.67
2024-01-29T14:03:01.018Z,30.77
2024-01-29T14:05:29.590Z,31.23
2024-01-29T14:07:56.565Z,33.28
2024-01-29T14:10:25.173Z,39.58
2024-01-29T14:12:52.248Z,34.47
2024-01-29T14:15:19.324Z,38.73
2024-01-29T14:17:46.496Z,37.80
2024-01-29T14:20:13.798Z,42.80
2024-01-29T14:22:41.006Z,44.25
2024-01-29T14:25:08.943Z,40.40
2024-01-29T14:27:36.051Z,35.65
2024-01-29T14:30:03.490Z,40.50
2024-01-29T14:32:30.409Z,36.85
2024-01-29T14:34:57.627Z,37.72
2024-01-29T14:37:25.507Z,38.13
2024-01-29T14:39:52.493Z,36.30
2024-01-29T14:42:19.368Z,41.38
2024-01-29T14:44:46.329Z,35.10
2024-01-29T14:47:17.426Z,35.95
2024-01-29T14:49:45.086Z,38.08
2024-01-29T14:52:13.854Z,37.60
2024-01-29T14:54:41.341Z,35.17
2024-01-29T14:57:08.791Z,38.20
2024-01-29T14:59:35.753Z,31.25
2024-01-29T15:02:07.830Z,35.85
2024-01-29T15:04:35.405Z,35.97
2024-01-29T15:07:03.037Z,34.95
2024-01-29T15:09:31.540Z,34.92
2024-01-29T15:11:58.605Z,33.17
2024-01-29T15:14:25.603Z,37.55
2024-01-29T15:17:04.658Z,39.13
2024-01-29T15:19:32.854Z,45.85
2024-01-29T15:22:00.238Z,39.72
2024-01-29T15:24:27.312Z,46.90
2024-01-29T15:26:54.423Z,44.55
2024-01-29T15:29:21.572Z,42.78
2024-01-29T15:31:48.912Z,37.75
2024-01-29T15:34:18.784Z,41.42
2024-01-29T15:36:46.392Z,45.42
2024-01-29T15:39:14.596Z,38.42
2024-01-29T15:41:42.149Z,41.85
2024-01-29T15:44:09.438Z,43.63
2024-01-29T15:46:43.231Z,37.47
2024-01-29T15:49:11.014Z,42.78
2024-01-29T15:51:39.711Z,39.22
2024-01-29T15:54:06.650Z,39.63
2024-01-29T15:56:33.660Z,42.20
2024-01-29T15:59:01.655Z,43.13
2024-01-29T16:01:28.726Z,40.10
2024-01-29T16:03:55.815Z,39.88
2024-01-29T16:06:22.906Z,38.90
2024-01-29T16:08:49.810Z,42.92
2024-01-29T16:11:17.613Z,41.38
2024-01-29T16:13:44.552Z,45.70
2024-01-29T16:16:14.792Z,43.45
2024-01-29T16:18:43.468Z,45.42
2024-01-29T16:21:15.615Z,43.75
2024-01-29T16:23:42.540Z,44.00
2024-01-29T16:26:09.550Z,40.20
2024-01-29T16:28:37.688Z,46.35
2024-01-29T16:31:04.871Z,44.75
2024-01-29T16:33:33.121Z,42.75
2024-01-29T16:36:00.152Z,40.53
2024-01-29T16:38:27.145Z,39.55
2024-01-29T16:40:54.105Z,42.50
2024-01-29T16:43:21.527Z,43.80
2024-01-29T16:45:49.220Z,42.97
2024-01-29T16:48:16.957Z,37.88
2024-01-29T16:50:44.038Z,39.95
2024-01-29T16:53:11.033Z,42.05
2024-01-29T16:55:37.945Z,39.55
2024-01-29T16:58:07.147Z,38.80
2024-01-29T17:00:35.001Z,34.20
2024-01-29T17:03:01.991Z,39.17
2024-01-29T17:05:29.159Z,36.75
2024-01-29T17:07:56.161Z,36.85
2024-01-29T17:10:23.183Z,40.83
2024-01-29T17:12:50.182Z,34.42
2024-01-29T17:15:17.114Z,35.10
2024-01-29T17:17:44.148Z,30.98
2024-01-29T17:20:11.886Z,33.03
2024-01-29T17:22:38.898Z,34.20
2024-01-29T17:25:07.000Z,31.27
2024-01-29T17:27:34.167Z,32.17
2024-01-29T17:30:01.200Z,32.33
2024-01-29T17:32:28.426Z,30.88
2024-01-29T17:34:55.556Z,31.23
2024-01-29T17:37:22.678Z,27.65
2024-01-29T17:39:52.325Z,30.20
2024-01-29T17:42:19.586Z,27.58
2024-01-29T17:44:46.589Z,26.02
2024-01-29T17:47:13.694Z,26.10
2024-01-29T17:49:40.885Z,27.92
2024-01-29T17:52:08.494Z,28.45
2024-01-29T17:54:35.558Z,27.40
2024-01-29T17:57:03.786Z,25.50
2024-01-29T17:59:30.818Z,29.35
2024-01-29T18:01:57.854Z,27.00
2024-01-29T18:04:25.094Z,25.23
2024-01-29T18:06:53.422Z,25.75
2024-01-29T18:09:20.978Z,27.75
2024-01-29T18:11:48.960Z,26.08
2024-01-29T18:14:16.835Z,26.35
2024-01-29T18:16:43.780Z,25.27
2024-01-29T18:19:10.785Z,24.13
2024-01-29T18:21:41.210Z,24.90
2024-01-29T18:24:08.423Z,24.10
2024-01-29T18:26:41.013Z,25.75
2024-01-29T18:29:08.416Z,23.50
2024-01-29T18:31:37.135Z,24.80
2024-01-29T18:34:04.124Z,22.58
2024-01-29T18:36:31.364Z,23.80
2024-01-29T18:38:58.787Z,22.67
2024-01-29T18:41:25.981Z,23.08
2024-01-29T18:43:53.090Z,22.25
2024-01-29T18:46:20.359Z,22.38
2024-01-29T18:48:49.572Z,23.08
2024-01-29T18:51:33.194Z,23.73
2024-01-29T18:54:02.661Z,22.67
2024-01-29T18:56:31.183Z,23.05
2024-01-29T18:58:58.441Z,22.38
2024-01-29T19:01:25.826Z,22.30
2024-01-29T19:03:53.278Z,22.13
2024-01-29T19:06:20.517Z,22.92
2024-01-29T19:08:48.342Z,22.38
2024-01-29T19:11:15.314Z,21.55
2024-01-29T19:13:42.278Z,23.35
2024-01-29T19:16:09.291Z,24.25
2024-01-29T19:18:36.459Z,23.38
2024-01-29T19:21:03.736Z,22.85
2024-01-29T19:23:30.881Z,22.70
2024-01-29T19:25:57.797Z,22.83
2024-01-29T19:28:27.967Z,24.37
2024-01-29T19:30:56.534Z,22.05
2024-01-29T19:33:23.512Z,21.58
2024-01-29T19:35:52.276Z,20.48
2024-01-29T19:38:23.579Z,21.45
2024-01-29T19:40:50.783Z,20.50
2024-01-29T19:43:17.989Z,21.73
2024-01-29T19:45:45.160Z,20.73
2024-01-29T19:48:12.620Z,21.48
2024-01-29T19:50:39.691Z,21.58
2024-01-29T19:53:07.337Z,20.55
2024-01-29T19:55:34.605Z,20.52
2024-01-29T19:58:01.628Z,21.20
2024-01-29T20:00:28.571Z,20.58
2024-01-29T20:02:55.540Z,20.48
2024-01-29T20:05:23.119Z,19.90
2024-01-29T20:07:50.146Z,20.48
2024-01-29T20:10:17.368Z,20.92
2024-01-29T20:12:44.522Z,20.63
2024-01-29T20:15:11.694Z,21.70
2024-01-29T20:17:38.751Z,21.15
2024-01-29T20:20:06.914Z,21.00
2024-01-29T20:22:33.993Z,22.70
2024-01-29T20:25:00.984Z,21.50
2024-01-29T20:27:28.018Z,21.20
2024-01-29T20:29:55.242Z,21.65
2024-01-29T20:32:24.676Z,20.60
2024-01-29T20:34:52.555Z,21.52
2024-01-29T20:37:20.104Z,20.48
2024-01-29T20:39:47.222Z,21.08
2024-01-29T20:42:14.293Z,22.80
2024-01-29T20:44:41.279Z,22.80
2024-01-29T20:47:08.263Z,21.52
2024-01-29T20:49:35.426Z,23.45
2024-01-29T20:52:02.574Z,22.42
2024-01-29T20:54:29.648Z,22.42
2024-01-29T20:57:00.162Z,23.45
2024-01-29T20:59:28.252Z,21.83
2024-01-29T21:01:55.439Z,23.85
2024-01-29T21:04:22.893Z,23.33
2024-01-29T21:06:50.207Z,23.42
2024-01-29T21:09:17.335Z,21.83
2024-01-29T21:11:44.393Z,22.98
2024-01-29T21:14:12.672Z,22.15
2024-01-29T21:16:39.753Z,22.67
2024-01-29T21:19:06.875Z,22.80
2024-01-29T21:21:34.103Z,22.63
2024-01-29T21:24:02.033Z,22.83
2024-01-29T21:26:29.167Z,22.80
2024-01-29T21:28:58.424Z,22.75
2024-01-29T21:31:26.166Z,22.67
2024-01-29T21:33:53.381Z,23.35
2024-01-29T21:36:20.662Z,24.40
2024-01-29T21:38:47.754Z,23.20
2024-01-29T21:41:14.773Z,23.75
2024-01-29T21:43:41.771Z,24.48
2024-01-29T21:46:08.751Z,25.00
2024-01-29T21:48:35.940Z,25.10
2024-01-29T21:51:04.187Z,23.20
2024-01-29T21:53:31.171Z,25.13
2024-01-29T21:55:58.126Z,24.87
2024-01-29T21:58:25.475Z,27.70
2024-01-29T22:00:52.669Z,24.02
2024-01-29T22:03:20.628Z,24.25
2024-01-29T22:05:47.659Z,23.98
2024-01-29T22:08:16.545Z,25.98
2024-01-29T22:10:43.575Z,24.20
2024-01-29T22:13:11.233Z,23.63
2024-01-29T22:15:38.512Z,24.65
2024-01-29T22:18:06.283Z,23.50
2024-01-29T22:20:33.277Z,24.77
2024-01-29T22:23:00.218Z,24.48
2024-01-29T22:25:27.356Z,25.05
2024-01-29T22:27:54.673Z,24.60
2024-01-29T22:30:21.929Z,26.27
2024-01-29T22:32:49.025Z,25.25
2024-01-29T22:35:16.404Z,27.63
2024-01-29T22:37:43.481Z,25.55
2024-01-29T22:40:10.937Z,25.60
2024-01-29T22:42:38.699Z,25.85
2024-01-29T22:45:06.082Z,25.05
2024-01-29T22:47:33.088Z,25.05
2024-01-29T22:50:01.209Z,26.33
2024-01-29T22:52:28.269Z,26.17
2024-01-29T22:54:55.161Z,25.15
2024-01-29T22:57:22.133Z,24.75
2024-01-29T22:59:49.142Z,24.65
2024-01-29T23:02:16.032Z,27.50
2024-01-29T23:04:43.599Z,25.10
2024-01-29T23:07:11.852Z,25.80
2024-01-29T23:09:40.140Z,25.63
2024-01-29T23:12:07.854Z,25.38
2024-01-29T23:14:36.972Z,26.23
2024-01-29T23:17:04.067Z,25.17
2024-01-29T23:19:31.012Z,25.40
2024-01-29T23:21:58.212Z,26.80
2024-01-29T23:24:25.206Z,25.63
2024-01-29T23:26:52.109Z,29.17
2024-01-29T23:29:19.159Z,26.63
2024-01-29T23:31:46.097Z,28.65
2024-01-29T23:34:13.188Z,27.40
2024-01-29T23:36:40.633Z,28.40
2024-01-29T23:39:07.759Z,28.83
2024-01-29T23:41:35.691Z,27.37
2024-01-29T23:44:02.587Z,26.30
2024-01-29T23:46:29.537Z,27.63
2024-01-29T23:48:56.511Z,27.60
2024-01-29T23:51:23.496Z,28.57
2024-01-29T23:53:50.414Z,28.27
2024-01-29T23:56:17.309Z,30.57
2024-01-29T23:58:44.244Z,28.63
